Terminal Aerodrome Forecast
Issued by NWS Knoxville/Tri Cities, TN

Home | Current Version | Previous Version | Text Only | Print | Product List | Glossary On
Versions: 1 2 3 4 5 6 7 8 9 10 11 12 13 14
000
FTUS44 KMRX 211120
TAFCHA
TAF
KCHA 211120Z 2112/2212 14004KT P6SM BKN070
     FM211800 14009KT P6SM VCSH OVC040
     FM212000 15009KT 6SM -SHRA BR SCT020 OVC030
     FM220100 10003KT 4SM -SHRA BR SCT007 OVC012
     FM220400 05004KT 4SM -SHRA BR OVC007=

USA.gov is the U.S. government's official web portal to all federal, state and local government web resources and services.